sensor_id;sensor_type;location;lat;lon;timestamp;P1;durP1;ratioP1;P2;durP2;ratioP2
12577;SDS011;6354;51.026;8.968;2023-03-24T00:00:44;1999.90;;;200.80;;
12577;SDS011;6354;51.026;8.968;2023-03-24T00:03:13;1999.90;;;538.60;;
12577;SDS011;6354;51.026;8.968;2023-03-24T00:05:43;1999.90;;;316.70;;
12577;SDS011;6354;51.026;8.968;2023-03-24T00:08:12;1999.90;;;377.87;;
12577;SDS011;6354;51.026;8.968;2023-03-24T00:10:44;1999.90;;;389.63;;
12577;SDS011;6354;51.026;8.968;2023-03-24T00:13:12;1999.90;;;259.23;;
12577;SDS011;6354;51.026;8.968;2023-03-24T00:15:41;1416.73;;;180.13;;
12577;SDS011;6354;51.026;8.968;2023-03-24T00:18:10;1860.07;;;256.40;;
12577;SDS011;6354;51.026;8.968;2023-03-24T00:20:38;1999.90;;;239.60;;
12577;SDS011;6354;51.026;8.968;2023-03-24T00:23:07;1939.90;;;207.97;;
12577;SDS011;6354;51.026;8.968;2023-03-24T00:25:36;1330.73;;;147.80;;
12577;SDS011;6354;51.026;8.968;2023-03-24T00:28:05;1767.33;;;196.73;;
12577;SDS011;6354;51.026;8.968;2023-03-24T00:30:35;1999.90;;;195.00;;
12577;SDS011;6354;51.026;8.968;2023-03-24T00:33:03;872.50;;;105.83;;
12577;SDS011;6354;51.026;8.968;2023-03-24T00:35:31;1999.90;;;266.97;;
12577;SDS011;6354;51.026;8.968;2023-03-24T00:37:59;1999.90;;;254.70;;
12577;SDS011;6354;51.026;8.968;2023-03-24T00:40:27;1553.03;;;149.90;;
12577;SDS011;6354;51.026;8.968;2023-03-24T00:42:57;1228.27;;;152.30;;
12577;SDS011;6354;51.026;8.968;2023-03-24T00:45:25;1400.03;;;153.83;;
12577;SDS011;6354;51.026;8.968;2023-03-24T00:47:54;1999.90;;;323.17;;
12577;SDS011;6354;51.026;8.968;2023-03-24T00:50:23;1536.83;;;177.07;;
12577;SDS011;6354;51.026;8.968;2023-03-24T00:52:53;1979.40;;;247.37;;
12577;SDS011;6354;51.026;8.968;2023-03-24T00:55:23;1508.93;;;158.67;;
12577;SDS011;6354;51.026;8.968;2023-03-24T00:57:54;1288.73;;;143.90;;
12577;SDS011;6354;51.026;8.968;2023-03-24T01:00:24;1090.20;;;132.47;;
12577;SDS011;6354;51.026;8.968;2023-03-24T01:02:54;1414.33;;;182.13;;
12577;SDS011;6354;51.026;8.968;2023-03-24T01:05:24;1999.90;;;317.90;;
12577;SDS011;6354;51.026;8.968;2023-03-24T01:07:54;1464.03;;;160.77;;
12577;SDS011;6354;51.026;8.968;2023-03-24T01:10:23;1691.93;;;190.63;;
12577;SDS011;6354;51.026;8.968;2023-03-24T01:12:53;1536.30;;;135.67;;
12577;SDS011;6354;51.026;8.968;2023-03-24T01:15:24;1518.37;;;163.83;;
12577;SDS011;6354;51.026;8.968;2023-03-24T01:17:54;1999.90;;;335.63;;
12577;SDS011;6354;51.026;8.968;2023-03-24T01:20:23;1501.90;;;145.23;;
12577;SDS011;6354;51.026;8.968;2023-03-24T01:22:51;834.80;;;106.77;;
12577;SDS011;6354;51.026;8.968;2023-03-24T01:25:21;1999.90;;;289.43;;
12577;SDS011;6354;51.026;8.968;2023-03-24T01:27:51;954.83;;;112.67;;
12577;SDS011;6354;51.026;8.968;2023-03-24T01:30:20;1999.90;;;270.93;;
12577;SDS011;6354;51.026;8.968;2023-03-24T01:32:51;1590.13;;;190.67;;
12577;SDS011;6354;51.026;8.968;2023-03-24T01:35:20;1999.90;;;214.50;;
12577;SDS011;6354;51.026;8.968;2023-03-24T01:37:54;1980.23;;;240.57;;
12577;SDS011;6354;51.026;8.968;2023-03-24T01:40:24;1769.53;;;191.57;;
12577;SDS011;6354;51.026;8.968;2023-03-24T01:42:54;1412.93;;;188.80;;
12577;SDS011;6354;51.026;8.968;2023-03-24T01:45:42;1439.40;;;166.33;;
12577;SDS011;6354;51.026;8.968;2023-03-24T01:48:24;1384.00;;;162.07;;
12577;SDS011;6354;51.026;8.968;2023-03-24T01:50:57;1833.53;;;183.47;;
12577;SDS011;6354;51.026;8.968;2023-03-24T01:53:28;1355.73;;;144.90;;
12577;SDS011;6354;51.026;8.968;2023-03-24T01:55:57;1999.90;;;321.50;;
12577;SDS011;6354;51.026;8.968;2023-03-24T01:58:27;1999.90;;;309.63;;
12577;SDS011;6354;51.026;8.968;2023-03-24T02:00:57;1999.90;;;284.07;;
12577;SDS011;6354;51.026;8.968;2023-03-24T02:03:26;1443.50;;;181.43;;
12577;SDS011;6354;51.026;8.968;2023-03-24T02:05:59;1475.10;;;147.53;;
12577;SDS011;6354;51.026;8.968;2023-03-24T02:08:30;1917.00;;;203.23;;
12577;SDS011;6354;51.026;8.968;2023-03-24T02:11:03;1888.57;;;221.70;;
12577;SDS011;6354;51.026;8.968;2023-03-24T02:13:31;1999.90;;;271.77;;
12577;SDS011;6354;51.026;8.968;2023-03-24T02:16:03;1999.90;;;216.97;;
12577;SDS011;6354;51.026;8.968;2023-03-24T02:18:44;1999.90;;;252.87;;
12577;SDS011;6354;51.026;8.968;2023-03-24T02:27:36;1999.90;;;293.70;;
12577;SDS011;6354;51.026;8.968;2023-03-24T02:30:22;1999.90;;;203.63;;
12577;SDS011;6354;51.026;8.968;2023-03-24T02:33:08;1577.20;;;198.80;;
12577;SDS011;6354;51.026;8.968;2023-03-24T02:41:59;1875.90;;;206.80;;
12577;SDS011;6354;51.026;8.968;2023-03-24T02:44:35;1112.27;;;131.00;;
12577;SDS011;6354;51.026;8.968;2023-03-24T02:47:09;511.30;;;71.97;;
12577;SDS011;6354;51.026;8.968;2023-03-24T02:49:44;1833.27;;;181.63;;
12577;SDS011;6354;51.026;8.968;2023-03-24T02:52:21;1999.90;;;472.90;;
12577;SDS011;6354;51.026;8.968;2023-03-24T02:54:57;1452.97;;;150.47;;
12577;SDS011;6354;51.026;8.968;2023-03-24T02:57:29;1860.40;;;218.53;;
12577;SDS011;6354;51.026;8.968;2023-03-24T03:00:03;1695.37;;;204.23;;
12577;SDS011;6354;51.026;8.968;2023-03-24T03:02:38;1829.97;;;178.10;;
12577;SDS011;6354;51.026;8.968;2023-03-24T03:05:12;1999.90;;;339.00;;
12577;SDS011;6354;51.026;8.968;2023-03-24T03:07:44;1045.70;;;104.83;;
12577;SDS011;6354;51.026;8.968;2023-03-24T03:10:17;1999.90;;;288.33;;
12577;SDS011;6354;51.026;8.968;2023-03-24T03:12:49;1735.70;;;213.03;;
12577;SDS011;6354;51.026;8.968;2023-03-24T03:15:21;792.93;;;92.00;;
12577;SDS011;6354;51.026;8.968;2023-03-24T03:17:52;1999.90;;;262.43;;
12577;SDS011;6354;51.026;8.968;2023-03-24T03:20:25;1999.90;;;461.77;;
12577;SDS011;6354;51.026;8.968;2023-03-24T03:23:00;1273.23;;;143.10;;
12577;SDS011;6354;51.026;8.968;2023-03-24T03:25:34;1999.90;;;333.47;;
12577;SDS011;6354;51.026;8.968;2023-03-24T03:28:07;1999.90;;;306.50;;
12577;SDS011;6354;51.026;8.968;2023-03-24T03:30:38;1999.90;;;337.40;;
12577;SDS011;6354;51.026;8.968;2023-03-24T03:33:11;676.93;;;74.70;;
12577;SDS011;6354;51.026;8.968;2023-03-24T03:35:51;1999.90;;;247.63;;
12577;SDS011;6354;51.026;8.968;2023-03-24T03:38:23;1999.90;;;375.00;;
12577;SDS011;6354;51.026;8.968;2023-03-24T03:40:59;1963.20;;;236.17;;
12577;SDS011;6354;51.026;8.968;2023-03-24T03:43:30;1075.03;;;105.97;;
12577;SDS011;6354;51.026;8.968;2023-03-24T03:46:00;1209.83;;;168.73;;
12577;SDS011;6354;51.026;8.968;2023-03-24T03:48:31;1999.90;;;496.50;;
12577;SDS011;6354;51.026;8.968;2023-03-24T03:51:00;1996.90;;;207.53;;
12577;SDS011;6354;51.026;8.968;2023-03-24T03:53:40;1999.90;;;243.60;;
12577;SDS011;6354;51.026;8.968;2023-03-24T03:56:14;1757.73;;;174.57;;
12577;SDS011;6354;51.026;8.968;2023-03-24T03:58:44;1179.73;;;147.23;;
12577;SDS011;6354;51.026;8.968;2023-03-24T04:01:14;1040.50;;;129.60;;
12577;SDS011;6354;51.026;8.968;2023-03-24T04:03:49;1999.90;;;230.00;;
12577;SDS011;6354;51.026;8.968;2023-03-24T04:06:32;1993.43;;;252.10;;
12577;SDS011;6354;51.026;8.968;2023-03-24T04:09:08;1999.90;;;292.70;;
12577;SDS011;6354;51.026;8.968;2023-03-24T04:11:53;1999.90;;;392.83;;
12577;SDS011;6354;51.026;8.968;2023-03-24T04:14:50;1999.90;;;341.60;;
12577;SDS011;6354;51.026;8.968;2023-03-24T04:20:49;1999.90;;;251.57;;
12577;SDS011;6354;51.026;8.968;2023-03-24T04:23:29;1310.83;;;163.73;;
12577;SDS011;6354;51.026;8.968;2023-03-24T04:26:07;1999.90;;;296.07;;
12577;SDS011;6354;51.026;8.968;2023-03-24T04:28:59;1999.90;;;315.70;;
12577;SDS011;6354;51.026;8.968;2023-03-24T04:31:34;1550.03;;;163.07;;
12577;SDS011;6354;51.026;8.968;2023-03-24T04:34:09;1151.50;;;110.97;;
12577;SDS011;6354;51.026;8.968;2023-03-24T04:36:43;1408.33;;;159.73;;
12577;SDS011;6354;51.026;8.968;2023-03-24T04:39:16;1467.37;;;152.67;;
12577;SDS011;6354;51.026;8.968;2023-03-24T04:41:53;1999.90;;;342.07;;
12577;SDS011;6354;51.026;8.968;2023-03-24T04:44:24;1999.90;;;196.33;;
12577;SDS011;6354;51.026;8.968;2023-03-24T04:46:54;1326.33;;;146.07;;
12577;SDS011;6354;51.026;8.968;2023-03-24T04:49:23;1999.90;;;361.47;;
12577;SDS011;6354;51.026;8.968;2023-03-24T04:51:52;1999.90;;;636.30;;
12577;SDS011;6354;51.026;8.968;2023-03-24T04:54:21;1999.90;;;366.20;;
12577;SDS011;6354;51.026;8.968;2023-03-24T04:56:50;1999.90;;;330.57;;
12577;SDS011;6354;51.026;8.968;2023-03-24T04:59:19;1991.40;;;235.13;;
12577;SDS011;6354;51.026;8.968;2023-03-24T05:01:48;1999.90;;;421.53;;
12577;SDS011;6354;51.026;8.968;2023-03-24T05:04:17;1999.90;;;285.40;;
12577;SDS011;6354;51.026;8.968;2023-03-24T05:06:46;1999.90;;;424.70;;
12577;SDS011;6354;51.026;8.968;2023-03-24T05:09:15;1999.90;;;231.70;;
12577;SDS011;6354;51.026;8.968;2023-03-24T05:11:43;1999.90;;;493.73;;
12577;SDS011;6354;51.026;8.968;2023-03-24T05:14:11;1999.90;;;211.77;;
12577;SDS011;6354;51.026;8.968;2023-03-24T05:16:40;1999.90;;;498.83;;
12577;SDS011;6354;51.026;8.968;2023-03-24T05:19:09;1999.90;;;484.67;;
12577;SDS011;6354;51.026;8.968;2023-03-24T05:21:38;1999.90;;;486.10;;
12577;SDS011;6354;51.026;8.968;2023-03-24T05:24:06;1999.90;;;318.30;;
12577;SDS011;6354;51.026;8.968;2023-03-24T05:26:35;1999.90;;;413.20;;
12577;SDS011;6354;51.026;8.968;2023-03-24T05:29:03;1999.90;;;218.77;;
12577;SDS011;6354;51.026;8.968;2023-03-24T05:31:31;1999.90;;;325.93;;
12577;SDS011;6354;51.026;8.968;2023-03-24T05:33:59;1746.03;;;179.30;;
12577;SDS011;6354;51.026;8.968;2023-03-24T05:36:28;1999.90;;;359.73;;
12577;SDS011;6354;51.026;8.968;2023-03-24T05:38:56;1999.90;;;352.53;;
12577;SDS011;6354;51.026;8.968;2023-03-24T05:41:24;1999.90;;;364.03;;
12577;SDS011;6354;51.026;8.968;2023-03-24T05:43:52;1706.93;;;178.50;;
12577;SDS011;6354;51.026;8.968;2023-03-24T05:46:20;1999.90;;;384.00;;
12577;SDS011;6354;51.026;8.968;2023-03-24T05:48:51;1999.90;;;412.30;;
12577;SDS011;6354;51.026;8.968;2023-03-24T05:51:19;1999.90;;;296.23;;
12577;SDS011;6354;51.026;8.968;2023-03-24T05:53:48;1999.90;;;330.67;;
12577;SDS011;6354;51.026;8.968;2023-03-24T05:56:17;1999.90;;;449.17;;
12577;SDS011;6354;51.026;8.968;2023-03-24T05:58:45;1999.90;;;729.93;;
12577;SDS011;6354;51.026;8.968;2023-03-24T06:01:13;1999.90;;;281.87;;
12577;SDS011;6354;51.026;8.968;2023-03-24T06:03:43;1747.73;;;180.60;;
12577;SDS011;6354;51.026;8.968;2023-03-24T06:06:12;1999.90;;;304.23;;
12577;SDS011;6354;51.026;8.968;2023-03-24T06:08:40;1414.73;;;153.43;;
12577;SDS011;6354;51.026;8.968;2023-03-24T06:11:11;1999.90;;;306.77;;
12577;SDS011;6354;51.026;8.968;2023-03-24T06:13:40;1942.80;;;241.33;;
12577;SDS011;6354;51.026;8.968;2023-03-24T06:16:08;1999.90;;;317.67;;
12577;SDS011;6354;51.026;8.968;2023-03-24T06:18:36;1093.10;;;117.10;;
12577;SDS011;6354;51.026;8.968;2023-03-24T06:21:05;1999.90;;;444.63;;
12577;SDS011;6354;51.026;8.968;2023-03-24T06:23:33;1999.90;;;245.70;;
12577;SDS011;6354;51.026;8.968;2023-03-24T06:26:06;1999.90;;;408.50;;
12577;SDS011;6354;51.026;8.968;2023-03-24T06:28:37;1999.90;;;272.17;;
12577;SDS011;6354;51.026;8.968;2023-03-24T06:31:07;1750.40;;;206.97;;
12577;SDS011;6354;51.026;8.968;2023-03-24T06:33:40;1999.90;;;320.77;;
12577;SDS011;6354;51.026;8.968;2023-03-24T06:36:09;1999.90;;;295.80;;
12577;SDS011;6354;51.026;8.968;2023-03-24T06:38:38;1999.90;;;353.40;;
12577;SDS011;6354;51.026;8.968;2023-03-24T06:41:07;1999.90;;;603.17;;
12577;SDS011;6354;51.026;8.968;2023-03-24T06:43:37;1999.90;;;540.63;;
12577;SDS011;6354;51.026;8.968;2023-03-24T06:46:05;1999.90;;;481.90;;
12577;SDS011;6354;51.026;8.968;2023-03-24T06:48:33;1999.90;;;810.53;;
12577;SDS011;6354;51.026;8.968;2023-03-24T06:51:01;1999.90;;;710.90;;
12577;SDS011;6354;51.026;8.968;2023-03-24T06:53:30;1999.90;;;462.33;;
12577;SDS011;6354;51.026;8.968;2023-03-24T06:55:58;1999.90;;;558.40;;
12577;SDS011;6354;51.026;8.968;2023-03-24T06:58:26;1999.90;;;521.30;;
12577;SDS011;6354;51.026;8.968;2023-03-24T07:00:55;1999.90;;;525.27;;
12577;SDS011;6354;51.026;8.968;2023-03-24T07:03:25;1999.90;;;426.13;;
12577;SDS011;6354;51.026;8.968;2023-03-24T07:05:53;1999.90;;;526.80;;
12577;SDS011;6354;51.026;8.968;2023-03-24T07:08:22;1673.43;;;178.57;;
12577;SDS011;6354;51.026;8.968;2023-03-24T07:11:03;1563.13;;;173.80;;
12577;SDS011;6354;51.026;8.968;2023-03-24T07:13:32;1999.90;;;300.57;;
12577;SDS011;6354;51.026;8.968;2023-03-24T07:16:02;1951.50;;;233.13;;
12577;SDS011;6354;51.026;8.968;2023-03-24T07:18:30;1999.90;;;376.20;;
12577;SDS011;6354;51.026;8.968;2023-03-24T07:20:58;1999.90;;;964.93;;
12577;SDS011;6354;51.026;8.968;2023-03-24T07:23:26;1999.90;;;649.63;;
12577;SDS011;6354;51.026;8.968;2023-03-24T07:25:55;1999.90;;;497.57;;
12577;SDS011;6354;51.026;8.968;2023-03-24T07:28:23;1503.53;;;219.63;;
12577;SDS011;6354;51.026;8.968;2023-03-24T07:30:51;1999.90;;;298.87;;
12577;SDS011;6354;51.026;8.968;2023-03-24T07:33:22;1999.90;;;505.73;;
12577;SDS011;6354;51.026;8.968;2023-03-24T07:35:52;1999.90;;;559.30;;
12577;SDS011;6354;51.026;8.968;2023-03-24T07:38:21;1999.90;;;320.40;;
12577;SDS011;6354;51.026;8.968;2023-03-24T07:40:49;1999.90;;;280.13;;
12577;SDS011;6354;51.026;8.968;2023-03-24T07:43:17;1999.90;;;576.33;;
12577;SDS011;6354;51.026;8.968;2023-03-24T07:45:45;696.57;;;79.83;;
12577;SDS011;6354;51.026;8.968;2023-03-24T07:48:14;1934.73;;;316.43;;
12577;SDS011;6354;51.026;8.968;2023-03-24T07:50:43;1999.90;;;414.53;;
12577;SDS011;6354;51.026;8.968;2023-03-24T07:53:11;1476.73;;;172.20;;
12577;SDS011;6354;51.026;8.968;2023-03-24T07:55:43;1855.13;;;293.17;;
12577;SDS011;6354;51.026;8.968;2023-03-24T07:58:12;499.73;;;68.50;;
12577;SDS011;6354;51.026;8.968;2023-03-24T08:00:40;853.63;;;135.43;;
12577;SDS011;6354;51.026;8.968;2023-03-24T08:03:08;466.27;;;51.50;;
12577;SDS011;6354;51.026;8.968;2023-03-24T08:05:40;669.10;;;104.20;;
12577;SDS011;6354;51.026;8.968;2023-03-24T08:08:10;1444.03;;;174.57;;
12577;SDS011;6354;51.026;8.968;2023-03-24T08:10:38;924.63;;;113.60;;
12577;SDS011;6354;51.026;8.968;2023-03-24T08:13:06;702.23;;;100.87;;
12577;SDS011;6354;51.026;8.968;2023-03-24T08:15:34;1291.50;;;158.97;;
12577;SDS011;6354;51.026;8.968;2023-03-24T08:18:03;1143.57;;;134.27;;
12577;SDS011;6354;51.026;8.968;2023-03-24T08:20:31;1993.10;;;234.40;;
12577;SDS011;6354;51.026;8.968;2023-03-24T08:23:00;1999.90;;;297.37;;
12577;SDS011;6354;51.026;8.968;2023-03-24T08:25:31;1236.63;;;170.73;;
12577;SDS011;6354;51.026;8.968;2023-03-24T08:28:00;1572.73;;;176.37;;
12577;SDS011;6354;51.026;8.968;2023-03-24T08:30:29;1298.00;;;153.77;;
12577;SDS011;6354;51.026;8.968;2023-03-24T08:32:58;1792.27;;;223.30;;
12577;SDS011;6354;51.026;8.968;2023-03-24T08:35:28;1508.03;;;189.50;;
12577;SDS011;6354;51.026;8.968;2023-03-24T08:37:58;1192.90;;;157.33;;
12577;SDS011;6354;51.026;8.968;2023-03-24T08:40:33;1724.53;;;233.80;;
12577;SDS011;6354;51.026;8.968;2023-03-24T08:43:04;1790.40;;;206.00;;
12577;SDS011;6354;51.026;8.968;2023-03-24T08:45:34;1127.33;;;142.40;;
12577;SDS011;6354;51.026;8.968;2023-03-24T08:48:04;1082.47;;;140.53;;
12577;SDS011;6354;51.026;8.968;2023-03-24T08:50:34;1999.90;;;423.23;;
12577;SDS011;6354;51.026;8.968;2023-03-24T08:53:04;1829.47;;;246.73;;
12577;SDS011;6354;51.026;8.968;2023-03-24T08:55:34;1999.90;;;306.57;;
12577;SDS011;6354;51.026;8.968;2023-03-24T08:58:06;1999.90;;;451.70;;
12577;SDS011;6354;51.026;8.968;2023-03-24T09:00:35;624.07;;;80.80;;
12577;SDS011;6354;51.026;8.968;2023-03-24T09:03:03;1275.67;;;192.57;;
12577;SDS011;6354;51.026;8.968;2023-03-24T09:05:31;1999.90;;;363.73;;
12577;SDS011;6354;51.026;8.968;2023-03-24T09:08:10;1192.70;;;163.20;;
12577;SDS011;6354;51.026;8.968;2023-03-24T09:10:40;1261.50;;;151.87;;
12577;SDS011;6354;51.026;8.968;2023-03-24T09:13:08;1999.90;;;425.60;;
12577;SDS011;6354;51.026;8.968;2023-03-24T09:15:36;1079.47;;;160.23;;
12577;SDS011;6354;51.026;8.968;2023-03-24T09:18:04;1096.13;;;171.07;;
12577;SDS011;6354;51.026;8.968;2023-03-24T09:20:33;1006.80;;;180.13;;
12577;SDS011;6354;51.026;8.968;2023-03-24T09:23:01;1451.10;;;248.00;;
12577;SDS011;6354;51.026;8.968;2023-03-24T09:25:29;1999.90;;;471.43;;
12577;SDS011;6354;51.026;8.968;2023-03-24T09:27:58;1992.20;;;591.17;;
12577;SDS011;6354;51.026;8.968;2023-03-24T09:30:26;1999.90;;;486.77;;
12577;SDS011;6354;51.026;8.968;2023-03-24T09:32:57;1999.90;;;385.17;;
12577;SDS011;6354;51.026;8.968;2023-03-24T09:35:25;1999.90;;;545.63;;
12577;SDS011;6354;51.026;8.968;2023-03-24T09:37:54;1999.90;;;471.90;;
12577;SDS011;6354;51.026;8.968;2023-03-24T09:40:22;1999.90;;;624.43;;
12577;SDS011;6354;51.026;8.968;2023-03-24T09:42:54;1999.90;;;584.93;;
12577;SDS011;6354;51.026;8.968;2023-03-24T09:45:29;1999.90;;;424.43;;
12577;SDS011;6354;51.026;8.968;2023-03-24T09:48:03;1999.90;;;332.57;;
12577;SDS011;6354;51.026;8.968;2023-03-24T09:50:39;1245.80;;;186.47;;
12577;SDS011;6354;51.026;8.968;2023-03-24T09:53:16;1427.23;;;174.63;;
12577;SDS011;6354;51.026;8.968;2023-03-24T09:55:53;1999.90;;;593.50;;
12577;SDS011;6354;51.026;8.968;2023-03-24T09:58:21;1932.40;;;285.57;;
12577;SDS011;6354;51.026;8.968;2023-03-24T10:00:55;1999.90;;;268.33;;
12577;SDS011;6354;51.026;8.968;2023-03-24T10:03:23;1999.90;;;312.57;;
12577;SDS011;6354;51.026;8.968;2023-03-24T10:05:52;1962.33;;;272.10;;
12577;SDS011;6354;51.026;8.968;2023-03-24T10:08:26;1999.90;;;600.90;;
12577;SDS011;6354;51.026;8.968;2023-03-24T10:10:59;1925.03;;;252.23;;
12577;SDS011;6354;51.026;8.968;2023-03-24T10:13:34;1999.90;;;481.60;;
12577;SDS011;6354;51.026;8.968;2023-03-24T10:16:13;1999.90;;;326.37;;
12577;SDS011;6354;51.026;8.968;2023-03-24T10:18:48;1999.90;;;598.73;;
12577;SDS011;6354;51.026;8.968;2023-03-24T10:21:23;1999.90;;;390.93;;
12577;SDS011;6354;51.026;8.968;2023-03-24T10:23:54;1999.90;;;534.50;;
12577;SDS011;6354;51.026;8.968;2023-03-24T10:26:34;1957.43;;;372.70;;
12577;SDS011;6354;51.026;8.968;2023-03-24T10:29:12;1999.90;;;353.07;;
12577;SDS011;6354;51.026;8.968;2023-03-24T10:31:50;1999.90;;;733.70;;
12577;SDS011;6354;51.026;8.968;2023-03-24T10:34:21;1999.90;;;535.70;;
12577;SDS011;6354;51.026;8.968;2023-03-24T10:36:51;1999.90;;;574.73;;
12577;SDS011;6354;51.026;8.968;2023-03-24T10:39:20;1999.90;;;730.50;;
12577;SDS011;6354;51.026;8.968;2023-03-24T10:42:08;1999.90;;;715.87;;
12577;SDS011;6354;51.026;8.968;2023-03-24T10:44:42;1999.90;;;552.90;;
12577;SDS011;6354;51.026;8.968;2023-03-24T10:47:11;1999.90;;;522.03;;
12577;SDS011;6354;51.026;8.968;2023-03-24T10:49:50;1999.90;;;389.40;;
12577;SDS011;6354;51.026;8.968;2023-03-24T10:52:20;1999.90;;;510.33;;
12577;SDS011;6354;51.026;8.968;2023-03-24T10:54:53;1999.90;;;515.95;;
12577;SDS011;6354;51.026;8.968;2023-03-24T10:57:22;1999.90;;;601.17;;
12577;SDS011;6354;51.026;8.968;2023-03-24T10:59:53;1999.90;;;860.07;;
12577;SDS011;6354;51.026;8.968;2023-03-24T11:02:24;1999.90;;;742.22;;
12577;SDS011;6354;51.026;8.968;2023-03-24T11:04:56;1999.90;;;760.83;;
12577;SDS011;6354;51.026;8.968;2023-03-24T11:07:28;1999.90;;;491.17;;
12577;SDS011;6354;51.026;8.968;2023-03-24T11:10:01;1999.90;;;358.30;;
12577;SDS011;6354;51.026;8.968;2023-03-24T11:12:33;1999.90;;;726.33;;
12577;SDS011;6354;51.026;8.968;2023-03-24T11:15:12;1999.90;;;623.85;;
12577;SDS011;6354;51.026;8.968;2023-03-24T11:17:52;1999.90;;;672.37;;
12577;SDS011;6354;51.026;8.968;2023-03-24T11:20:24;1999.90;;;749.30;;
12577;SDS011;6354;51.026;8.968;2023-03-24T11:23:00;1849.77;;;229.00;;
12577;SDS011;6354;51.026;8.968;2023-03-24T11:25:30;1999.90;;;328.73;;
12577;SDS011;6354;51.026;8.968;2023-03-24T11:28:02;1999.90;;;546.80;;
12577;SDS011;6354;51.026;8.968;2023-03-24T11:30:35;1999.90;;;604.00;;
12577;SDS011;6354;51.026;8.968;2023-03-24T11:33:16;1999.90;;;556.60;;
12577;SDS011;6354;51.026;8.968;2023-03-24T11:36:34;1999.90;;;603.13;;
12577;SDS011;6354;51.026;8.968;2023-03-24T11:39:12;1999.90;;;954.90;;
12577;SDS011;6354;51.026;8.968;2023-03-24T11:41:49;1999.90;;;328.58;;
12577;SDS011;6354;51.026;8.968;2023-03-24T11:44:20;1999.90;;;523.00;;
12577;SDS011;6354;51.026;8.968;2023-03-24T11:46:51;1999.90;;;562.20;;
12577;SDS011;6354;51.026;8.968;2023-03-24T11:49:24;1999.90;;;538.33;;
12577;SDS011;6354;51.026;8.968;2023-03-24T11:51:55;1999.90;;;655.38;;
12577;SDS011;6354;51.026;8.968;2023-03-24T11:54:25;1999.90;;;722.42;;
12577;SDS011;6354;51.026;8.968;2023-03-24T11:56:58;1999.90;;;967.25;;
12577;SDS011;6354;51.026;8.968;2023-03-24T11:59:32;1999.90;;;882.28;;
12577;SDS011;6354;51.026;8.968;2023-03-24T12:02:09;1999.90;;;844.67;;
12577;SDS011;6354;51.026;8.968;2023-03-24T12:04:49;1999.90;;;638.33;;
12577;SDS011;6354;51.026;8.968;2023-03-24T12:07:38;1999.90;;;934.38;;
12577;SDS011;6354;51.026;8.968;2023-03-24T12:10:36;1999.90;;;999.90;;
12577;SDS011;6354;51.026;8.968;2023-03-24T12:13:11;1999.90;;;916.00;;
12577;SDS011;6354;51.026;8.968;2023-03-24T12:15:59;1999.90;;;676.40;;
12577;SDS011;6354;51.026;8.968;2023-03-24T12:21:44;1999.90;;;999.30;;
12577;SDS011;6354;51.026;8.968;2023-03-24T12:24:20;1999.90;;;999.90;;
12577;SDS011;6354;51.026;8.968;2023-03-24T12:26:59;1999.90;;;999.90;;
12577;SDS011;6354;51.026;8.968;2023-03-24T12:29:34;1999.90;;;999.90;;
12577;SDS011;6354;51.026;8.968;2023-03-24T12:32:23;1999.90;;;999.90;;
12577;SDS011;6354;51.026;8.968;2023-03-24T12:38:04;1999.90;;;825.15;;
12577;SDS011;6354;51.026;8.968;2023-03-24T12:40:50;1999.90;;;871.88;;
12577;SDS011;6354;51.026;8.968;2023-03-24T12:43:36;1999.90;;;999.90;;
12577;SDS011;6354;51.026;8.968;2023-03-24T12:46:21;1999.90;;;976.70;;
12577;SDS011;6354;51.026;8.968;2023-03-24T12:49:25;1999.90;;;999.90;;
12577;SDS011;6354;51.026;8.968;2023-03-24T12:52:08;1999.90;;;999.90;;
12577;SDS011;6354;51.026;8.968;2023-03-24T12:54:48;1999.90;;;958.53;;
12577;SDS011;6354;51.026;8.968;2023-03-24T12:57:22;1999.90;;;911.88;;
12577;SDS011;6354;51.026;8.968;2023-03-24T12:59:55;1999.90;;;920.88;;
12577;SDS011;6354;51.026;8.968;2023-03-24T13:02:28;1999.90;;;999.90;;
12577;SDS011;6354;51.026;8.968;2023-03-24T13:05:01;1999.90;;;999.90;;
12577;SDS011;6354;51.026;8.968;2023-03-24T13:07:34;1999.90;;;999.90;;
12577;SDS011;6354;51.026;8.968;2023-03-24T13:10:06;1999.90;;;996.88;;
12577;SDS011;6354;51.026;8.968;2023-03-24T13:12:40;1999.90;;;999.90;;
12577;SDS011;6354;51.026;8.968;2023-03-24T13:15:17;1999.90;;;999.90;;
12577;SDS011;6354;51.026;8.968;2023-03-24T13:17:50;1999.90;;;999.90;;
12577;SDS011;6354;51.026;8.968;2023-03-24T13:20:23;1999.90;;;999.15;;
12577;SDS011;6354;51.026;8.968;2023-03-24T13:22:53;1999.90;;;999.90;;
12577;SDS011;6354;51.026;8.968;2023-03-24T13:25:27;1999.90;;;999.90;;
12577;SDS011;6354;51.026;8.968;2023-03-24T13:28:03;1999.90;;;852.90;;
12577;SDS011;6354;51.026;8.968;2023-03-24T13:30:37;1999.90;;;958.00;;
12577;SDS011;6354;51.026;8.968;2023-03-24T13:33:09;1999.90;;;993.08;;
12577;SDS011;6354;51.026;8.968;2023-03-24T13:35:49;1999.90;;;887.33;;
12577;SDS011;6354;51.026;8.968;2023-03-24T13:38:33;1999.90;;;933.20;;
12577;SDS011;6354;51.026;8.968;2023-03-24T13:41:06;1999.90;;;859.13;;
12577;SDS011;6354;51.026;8.968;2023-03-24T13:43:44;1999.90;;;466.95;;
12577;SDS011;6354;51.026;8.968;2023-03-24T13:46:14;1999.90;;;920.55;;
12577;SDS011;6354;51.026;8.968;2023-03-24T13:48:43;1999.90;;;813.20;;
12577;SDS011;6354;51.026;8.968;2023-03-24T13:51:18;1999.90;;;873.92;;
12577;SDS011;6354;51.026;8.968;2023-03-24T13:53:51;1999.90;;;787.50;;
12577;SDS011;6354;51.026;8.968;2023-03-24T13:56:24;1999.90;;;852.97;;
12577;SDS011;6354;51.026;8.968;2023-03-24T13:59:05;1999.90;;;946.53;;
12577;SDS011;6354;51.026;8.968;2023-03-24T14:01:36;1999.90;;;999.90;;
12577;SDS011;6354;51.026;8.968;2023-03-24T14:04:20;1999.90;;;965.70;;
12577;SDS011;6354;51.026;8.968;2023-03-24T14:06:53;1999.90;;;998.85;;
12577;SDS011;6354;51.026;8.968;2023-03-24T14:09:23;1999.90;;;819.03;;
12577;SDS011;6354;51.026;8.968;2023-03-24T14:17:44;1999.90;;;645.53;;
12577;SDS011;6354;51.026;8.968;2023-03-24T14:20:28;1949.35;;;443.85;;
12577;SDS011;6354;51.026;8.968;2023-03-24T14:23:17;1999.90;;;657.97;;
12577;SDS011;6354;51.026;8.968;2023-03-24T14:25:51;1999.90;;;664.47;;
12577;SDS011;6354;51.026;8.968;2023-03-24T14:28:24;1999.90;;;631.70;;
12577;SDS011;6354;51.026;8.968;2023-03-24T14:31:08;1999.90;;;742.55;;
12577;SDS011;6354;51.026;8.968;2023-03-24T14:33:54;1999.90;;;914.95;;
12577;SDS011;6354;51.026;8.968;2023-03-24T14:36:28;1999.90;;;999.90;;
12577;SDS011;6354;51.026;8.968;2023-03-24T14:39:05;1999.90;;;999.90;;
12577;SDS011;6354;51.026;8.968;2023-03-24T14:41:40;1999.90;;;990.30;;
12577;SDS011;6354;51.026;8.968;2023-03-24T14:44:10;1999.90;;;993.10;;
12577;SDS011;6354;51.026;8.968;2023-03-24T14:46:42;1999.90;;;893.53;;
12577;SDS011;6354;51.026;8.968;2023-03-24T14:49:15;1999.90;;;827.40;;
12577;SDS011;6354;51.026;8.968;2023-03-24T14:51:52;1999.90;;;999.90;;
12577;SDS011;6354;51.026;8.968;2023-03-24T14:54:26;1999.90;;;999.90;;